sensor_id;sensor_type;location;lat;lon;timestamp;P1;durP1;ratioP1;P2;durP2;ratioP2
32611;SDS011;19030;49.478;8.986;2022-11-23T00:00:23;9.10;;;3.33;;
32611;SDS011;19030;49.478;8.986;2022-11-23T00:02:23;17.15;;;3.72;;
32611;SDS011;19030;49.478;8.986;2022-11-23T00:04:24;9.52;;;3.40;;
32611;SDS011;19030;49.478;8.986;2022-11-23T00:06:25;9.15;;;3.80;;
32611;SDS011;19030;49.478;8.986;2022-11-23T00:08:25;9.00;;;3.33;;
32611;SDS011;19030;49.478;8.986;2022-11-23T00:10:26;9.68;;;3.65;;
32611;SDS011;19030;49.478;8.986;2022-11-23T00:12:26;10.00;;;3.20;;
32611;SDS011;19030;49.478;8.986;2022-11-23T00:14:27;9.00;;;3.30;;
32611;SDS011;19030;49.478;8.986;2022-11-23T00:16:28;7.18;;;3.30;;
32611;SDS011;19030;49.478;8.986;2022-11-23T00:18:29;9.18;;;3.58;;
32611;SDS011;19030;49.478;8.986;2022-11-23T00:20:30;7.68;;;3.40;;
32611;SDS011;19030;49.478;8.986;2022-11-23T00:22:30;9.43;;;3.58;;
32611;SDS011;19030;49.478;8.986;2022-11-23T00:24:31;9.90;;;3.70;;
32611;SDS011;19030;49.478;8.986;2022-11-23T00:26:31;13.50;;;3.30;;
32611;SDS011;19030;49.478;8.986;2022-11-23T00:28:32;8.85;;;4.07;;
32611;SDS011;19030;49.478;8.986;2022-11-23T00:30:38;7.57;;;3.70;;
32611;SDS011;19030;49.478;8.986;2022-11-23T00:32:39;10.05;;;3.67;;
32611;SDS011;19030;49.478;8.986;2022-11-23T00:34:40;7.57;;;3.40;;
32611;SDS011;19030;49.478;8.986;2022-11-23T00:36:41;8.65;;;4.10;;
32611;SDS011;19030;49.478;8.986;2022-11-23T00:38:42;8.35;;;3.83;;
32611;SDS011;19030;49.478;8.986;2022-11-23T00:40:43;8.40;;;3.92;;
32611;SDS011;19030;49.478;8.986;2022-11-23T00:42:43;10.98;;;3.80;;
32611;SDS011;19030;49.478;8.986;2022-11-23T00:44:44;8.73;;;3.67;;
32611;SDS011;19030;49.478;8.986;2022-11-23T00:46:44;7.57;;;3.78;;
32611;SDS011;19030;49.478;8.986;2022-11-23T00:48:46;8.05;;;3.97;;
32611;SDS011;19030;49.478;8.986;2022-11-23T00:50:47;11.90;;;4.53;;
32611;SDS011;19030;49.478;8.986;2022-11-23T00:52:48;7.65;;;3.95;;
32611;SDS011;19030;49.478;8.986;2022-11-23T00:54:48;10.93;;;3.88;;
32611;SDS011;19030;49.478;8.986;2022-11-23T00:56:49;12.23;;;4.57;;
32611;SDS011;19030;49.478;8.986;2022-11-23T00:58:50;14.98;;;5.30;;
32611;SDS011;19030;49.478;8.986;2022-11-23T01:01:02;12.90;;;4.68;;
32611;SDS011;19030;49.478;8.986;2022-11-23T01:03:07;12.20;;;4.00;;
32611;SDS011;19030;49.478;8.986;2022-11-23T01:05:08;10.48;;;4.13;;
32611;SDS011;19030;49.478;8.986;2022-11-23T01:07:08;10.25;;;4.43;;
32611;SDS011;19030;49.478;8.986;2022-11-23T01:09:16;11.20;;;4.50;;
32611;SDS011;19030;49.478;8.986;2022-11-23T01:11:18;9.10;;;3.85;;
32611;SDS011;19030;49.478;8.986;2022-11-23T01:13:20;9.60;;;4.05;;
32611;SDS011;19030;49.478;8.986;2022-11-23T01:15:21;10.27;;;3.97;;
32611;SDS011;19030;49.478;8.986;2022-11-23T01:17:21;10.95;;;5.57;;
32611;SDS011;19030;49.478;8.986;2022-11-23T01:19:22;11.40;;;4.50;;
32611;SDS011;19030;49.478;8.986;2022-11-23T01:21:24;12.15;;;4.40;;
32611;SDS011;19030;49.478;8.986;2022-11-23T01:23:29;9.15;;;4.32;;
32611;SDS011;19030;49.478;8.986;2022-11-23T01:25:30;8.93;;;4.93;;
32611;SDS011;19030;49.478;8.986;2022-11-23T01:27:31;12.43;;;6.70;;
32611;SDS011;19030;49.478;8.986;2022-11-23T01:29:32;15.13;;;9.18;;
32611;SDS011;19030;49.478;8.986;2022-11-23T01:31:34;15.82;;;9.68;;
32611;SDS011;19030;49.478;8.986;2022-11-23T01:33:35;18.65;;;10.23;;
32611;SDS011;19030;49.478;8.986;2022-11-23T01:35:36;16.95;;;9.88;;
32611;SDS011;19030;49.478;8.986;2022-11-23T01:37:37;19.58;;;9.55;;
32611;SDS011;19030;49.478;8.986;2022-11-23T01:39:37;18.45;;;9.07;;
32611;SDS011;19030;49.478;8.986;2022-11-23T01:41:39;15.20;;;8.32;;
32611;SDS011;19030;49.478;8.986;2022-11-23T01:43:41;16.65;;;7.88;;
32611;SDS011;19030;49.478;8.986;2022-11-23T01:46:03;13.02;;;6.82;;
32611;SDS011;19030;49.478;8.986;2022-11-23T01:48:04;13.57;;;6.10;;
32611;SDS011;19030;49.478;8.986;2022-11-23T01:50:12;11.07;;;5.88;;
32611;SDS011;19030;49.478;8.986;2022-11-23T01:52:16;10.80;;;5.38;;
32611;SDS011;19030;49.478;8.986;2022-11-23T01:54:23;11.48;;;4.95;;
32611;SDS011;19030;49.478;8.986;2022-11-23T01:56:32;11.23;;;5.00;;
32611;SDS011;19030;49.478;8.986;2022-11-23T01:58:37;10.40;;;5.43;;
32611;SDS011;19030;49.478;8.986;2022-11-23T02:00:40;13.57;;;5.80;;
32611;SDS011;19030;49.478;8.986;2022-11-23T02:02:44;10.30;;;5.00;;
32611;SDS011;19030;49.478;8.986;2022-11-23T02:04:56;11.43;;;4.70;;
32611;SDS011;19030;49.478;8.986;2022-11-23T02:07:00;14.30;;;5.00;;
32611;SDS011;19030;49.478;8.986;2022-11-23T02:09:02;9.82;;;5.00;;
32611;SDS011;19030;49.478;8.986;2022-11-23T02:11:03;11.00;;;5.30;;
32611;SDS011;19030;49.478;8.986;2022-11-23T02:13:05;13.50;;;5.32;;
32611;SDS011;19030;49.478;8.986;2022-11-23T02:15:08;10.82;;;5.25;;
32611;SDS011;19030;49.478;8.986;2022-11-23T02:17:09;14.93;;;6.45;;
32611;SDS011;19030;49.478;8.986;2022-11-23T02:19:14;15.20;;;7.00;;
32611;SDS011;19030;49.478;8.986;2022-11-23T02:21:30;14.35;;;6.50;;
32611;SDS011;19030;49.478;8.986;2022-11-23T02:23:37;10.98;;;6.00;;
32611;SDS011;19030;49.478;8.986;2022-11-23T02:26:10;17.42;;;6.53;;
32611;SDS011;19030;49.478;8.986;2022-11-23T02:28:22;12.80;;;6.40;;
32611;SDS011;19030;49.478;8.986;2022-11-23T02:30:25;12.50;;;5.95;;
32611;SDS011;19030;49.478;8.986;2022-11-23T02:32:28;13.90;;;5.50;;
32611;SDS011;19030;49.478;8.986;2022-11-23T02:34:29;12.63;;;5.70;;
32611;SDS011;19030;49.478;8.986;2022-11-23T02:36:34;12.63;;;4.80;;
32611;SDS011;19030;49.478;8.986;2022-11-23T02:38:42;13.15;;;4.93;;
32611;SDS011;19030;49.478;8.986;2022-11-23T02:40:43;12.32;;;5.32;;
32611;SDS011;19030;49.478;8.986;2022-11-23T02:42:43;12.10;;;5.95;;
32611;SDS011;19030;49.478;8.986;2022-11-23T02:46:50;11.52;;;5.28;;
32611;SDS011;19030;49.478;8.986;2022-11-23T02:48:52;10.93;;;4.80;;
32611;SDS011;19030;49.478;8.986;2022-11-23T02:50:53;10.18;;;4.53;;
32611;SDS011;19030;49.478;8.986;2022-11-23T02:52:53;12.30;;;4.85;;
32611;SDS011;19030;49.478;8.986;2022-11-23T02:54:54;10.30;;;4.82;;
32611;SDS011;19030;49.478;8.986;2022-11-23T02:56:55;11.00;;;4.65;;
32611;SDS011;19030;49.478;8.986;2022-11-23T02:58:56;12.38;;;4.75;;
32611;SDS011;19030;49.478;8.986;2022-11-23T03:00:56;11.13;;;4.43;;
32611;SDS011;19030;49.478;8.986;2022-11-23T03:02:57;10.48;;;5.10;;
32611;SDS011;19030;49.478;8.986;2022-11-23T03:05:00;10.82;;;4.55;;
32611;SDS011;19030;49.478;8.986;2022-11-23T03:07:00;11.88;;;4.60;;
32611;SDS011;19030;49.478;8.986;2022-11-23T03:09:01;14.10;;;4.82;;
32611;SDS011;19030;49.478;8.986;2022-11-23T03:11:02;11.70;;;4.55;;
32611;SDS011;19030;49.478;8.986;2022-11-23T03:13:04;8.40;;;4.03;;
32611;SDS011;19030;49.478;8.986;2022-11-23T03:15:09;10.65;;;4.05;;
32611;SDS011;19030;49.478;8.986;2022-11-23T03:17:14;10.20;;;4.70;;
32611;SDS011;19030;49.478;8.986;2022-11-23T03:19:17;8.82;;;4.40;;
32611;SDS011;19030;49.478;8.986;2022-11-23T03:21:18;13.27;;;4.30;;
32611;SDS011;19030;49.478;8.986;2022-11-23T03:23:18;7.55;;;3.63;;
32611;SDS011;19030;49.478;8.986;2022-11-23T03:25:19;10.57;;;4.00;;
32611;SDS011;19030;49.478;8.986;2022-11-23T03:27:23;8.05;;;3.05;;
32611;SDS011;19030;49.478;8.986;2022-11-23T03:29:24;7.70;;;2.95;;
32611;SDS011;19030;49.478;8.986;2022-11-23T03:31:26;7.10;;;3.05;;
32611;SDS011;19030;49.478;8.986;2022-11-23T03:33:27;11.30;;;3.35;;
32611;SDS011;19030;49.478;8.986;2022-11-23T03:35:28;9.02;;;3.40;;
32611;SDS011;19030;49.478;8.986;2022-11-23T03:37:51;9.15;;;3.70;;
32611;SDS011;19030;49.478;8.986;2022-11-23T03:39:52;9.57;;;4.25;;
32611;SDS011;19030;49.478;8.986;2022-11-23T03:42:22;10.65;;;3.50;;
32611;SDS011;19030;49.478;8.986;2022-11-23T03:44:23;10.80;;;3.65;;
32611;SDS011;19030;49.478;8.986;2022-11-23T03:46:24;8.65;;;3.10;;
32611;SDS011;19030;49.478;8.986;2022-11-23T03:48:25;8.80;;;3.08;;
32611;SDS011;19030;49.478;8.986;2022-11-23T03:50:26;7.40;;;2.60;;
32611;SDS011;19030;49.478;8.986;2022-11-23T03:52:28;7.65;;;2.75;;
32611;SDS011;19030;49.478;8.986;2022-11-23T03:54:29;7.32;;;2.90;;
32611;SDS011;19030;49.478;8.986;2022-11-23T03:56:29;8.50;;;3.28;;
32611;SDS011;19030;49.478;8.986;2022-11-23T03:58:30;10.45;;;3.28;;
32611;SDS011;19030;49.478;8.986;2022-11-23T04:00:34;9.68;;;2.88;;
32611;SDS011;19030;49.478;8.986;2022-11-23T04:02:35;5.70;;;2.80;;
32611;SDS011;19030;49.478;8.986;2022-11-23T04:04:42;6.68;;;2.78;;
32611;SDS011;19030;49.478;8.986;2022-11-23T04:07:05;9.80;;;3.20;;
32611;SDS011;19030;49.478;8.986;2022-11-23T04:09:14;8.10;;;3.05;;
32611;SDS011;19030;49.478;8.986;2022-11-23T04:11:35;7.72;;;2.80;;
32611;SDS011;19030;49.478;8.986;2022-11-23T04:13:35;8.52;;;3.40;;
32611;SDS011;19030;49.478;8.986;2022-11-23T04:15:36;15.95;;;3.85;;
32611;SDS011;19030;49.478;8.986;2022-11-23T04:17:37;8.90;;;3.80;;
32611;SDS011;19030;49.478;8.986;2022-11-23T04:19:37;14.55;;;4.53;;
32611;SDS011;19030;49.478;8.986;2022-11-23T04:21:38;8.10;;;4.10;;
32611;SDS011;19030;49.478;8.986;2022-11-23T04:23:39;11.77;;;4.22;;
32611;SDS011;19030;49.478;8.986;2022-11-23T04:25:44;18.42;;;5.15;;
32611;SDS011;19030;49.478;8.986;2022-11-23T04:27:45;9.05;;;4.15;;
32611;SDS011;19030;49.478;8.986;2022-11-23T04:29:47;11.93;;;4.60;;
32611;SDS011;19030;49.478;8.986;2022-11-23T04:31:47;9.05;;;4.50;;
32611;SDS011;19030;49.478;8.986;2022-11-23T04:33:53;9.60;;;4.40;;
32611;SDS011;19030;49.478;8.986;2022-11-23T04:35:54;10.23;;;4.28;;
32611;SDS011;19030;49.478;8.986;2022-11-23T04:37:55;9.63;;;3.67;;
32611;SDS011;19030;49.478;8.986;2022-11-23T04:39:59;10.38;;;3.60;;
32611;SDS011;19030;49.478;8.986;2022-11-23T04:42:10;7.32;;;3.20;;
32611;SDS011;19030;49.478;8.986;2022-11-23T04:44:12;7.50;;;3.38;;
32611;SDS011;19030;49.478;8.986;2022-11-23T04:46:14;6.80;;;2.80;;
32611;SDS011;19030;49.478;8.986;2022-11-23T04:48:17;10.05;;;2.90;;
32611;SDS011;19030;49.478;8.986;2022-11-23T04:50:17;8.77;;;3.20;;
32611;SDS011;19030;49.478;8.986;2022-11-23T04:52:23;15.32;;;6.22;;
32611;SDS011;19030;49.478;8.986;2022-11-23T04:54:24;9.18;;;5.18;;
32611;SDS011;19030;49.478;8.986;2022-11-23T04:56:29;10.98;;;5.40;;
32611;SDS011;19030;49.478;8.986;2022-11-23T04:58:30;10.38;;;4.80;;
32611;SDS011;19030;49.478;8.986;2022-11-23T05:00:31;10.38;;;3.83;;
32611;SDS011;19030;49.478;8.986;2022-11-23T05:02:33;10.48;;;3.63;;
32611;SDS011;19030;49.478;8.986;2022-11-23T05:04:54;10.10;;;3.30;;
32611;SDS011;19030;49.478;8.986;2022-11-23T05:07:00;9.80;;;3.10;;
32611;SDS011;19030;49.478;8.986;2022-11-23T05:09:02;8.35;;;3.30;;
32611;SDS011;19030;49.478;8.986;2022-11-23T05:11:16;7.25;;;3.05;;
32611;SDS011;19030;49.478;8.986;2022-11-23T05:13:17;8.77;;;3.20;;
32611;SDS011;19030;49.478;8.986;2022-11-23T05:15:18;8.80;;;3.22;;
32611;SDS011;19030;49.478;8.986;2022-11-23T05:17:19;11.32;;;3.63;;
32611;SDS011;19030;49.478;8.986;2022-11-23T05:19:21;8.32;;;3.33;;
32611;SDS011;19030;49.478;8.986;2022-11-23T05:21:22;9.60;;;3.15;;
32611;SDS011;19030;49.478;8.986;2022-11-23T05:23:23;9.45;;;3.33;;
32611;SDS011;19030;49.478;8.986;2022-11-23T05:25:26;8.98;;;3.25;;
32611;SDS011;19030;49.478;8.986;2022-11-23T05:27:34;7.88;;;3.50;;
32611;SDS011;19030;49.478;8.986;2022-11-23T05:29:35;8.10;;;3.25;;
32611;SDS011;19030;49.478;8.986;2022-11-23T05:31:38;13.05;;;3.50;;
32611;SDS011;19030;49.478;8.986;2022-11-23T05:33:39;9.20;;;3.25;;
32611;SDS011;19030;49.478;8.986;2022-11-23T05:35:42;10.18;;;3.85;;
32611;SDS011;19030;49.478;8.986;2022-11-23T05:37:42;10.05;;;3.50;;
32611;SDS011;19030;49.478;8.986;2022-11-23T05:39:45;7.97;;;3.20;;
32611;SDS011;19030;49.478;8.986;2022-11-23T05:41:47;8.15;;;3.28;;
32611;SDS011;19030;49.478;8.986;2022-11-23T05:44:00;8.45;;;3.20;;
32611;SDS011;19030;49.478;8.986;2022-11-23T05:46:02;9.82;;;3.28;;
32611;SDS011;19030;49.478;8.986;2022-11-23T05:48:06;9.98;;;3.22;;
32611;SDS011;19030;49.478;8.986;2022-11-23T05:50:20;9.80;;;3.15;;
32611;SDS011;19030;49.478;8.986;2022-11-23T05:52:23;7.85;;;3.20;;
32611;SDS011;19030;49.478;8.986;2022-11-23T05:54:25;9.13;;;3.83;;
32611;SDS011;19030;49.478;8.986;2022-11-23T05:56:35;10.48;;;3.25;;
32611;SDS011;19030;49.478;8.986;2022-11-23T05:58:43;8.25;;;3.33;;
32611;SDS011;19030;49.478;8.986;2022-11-23T06:00:44;12.07;;;3.33;;
32611;SDS011;19030;49.478;8.986;2022-11-23T06:02:50;8.35;;;3.17;;
32611;SDS011;19030;49.478;8.986;2022-11-23T06:04:51;10.45;;;3.15;;
32611;SDS011;19030;49.478;8.986;2022-11-23T06:06:58;11.77;;;3.60;;
32611;SDS011;19030;49.478;8.986;2022-11-23T06:09:01;10.43;;;3.63;;
32611;SDS011;19030;49.478;8.986;2022-11-23T06:11:03;10.15;;;3.83;;
32611;SDS011;19030;49.478;8.986;2022-11-23T06:13:05;10.85;;;3.53;;
32611;SDS011;19030;49.478;8.986;2022-11-23T06:15:07;9.15;;;3.33;;
32611;SDS011;19030;49.478;8.986;2022-11-23T06:17:08;7.55;;;3.25;;
32611;SDS011;19030;49.478;8.986;2022-11-23T06:19:13;8.38;;;3.33;;
32611;SDS011;19030;49.478;8.986;2022-11-23T06:21:15;11.02;;;3.28;;
32611;SDS011;19030;49.478;8.986;2022-11-23T06:23:16;8.00;;;3.10;;
32611;SDS011;19030;49.478;8.986;2022-11-23T06:25:17;8.52;;;3.35;;
32611;SDS011;19030;49.478;8.986;2022-11-23T06:27:24;8.27;;;3.10;;
32611;SDS011;19030;49.478;8.986;2022-11-23T06:29:26;9.85;;;3.75;;
32611;SDS011;19030;49.478;8.986;2022-11-23T06:31:27;9.15;;;3.50;;
32611;SDS011;19030;49.478;8.986;2022-11-23T06:33:27;9.60;;;3.60;;
32611;SDS011;19030;49.478;8.986;2022-11-23T06:35:28;10.68;;;4.10;;
32611;SDS011;19030;49.478;8.986;2022-11-23T06:37:29;8.90;;;3.70;;
32611;SDS011;19030;49.478;8.986;2022-11-23T06:39:29;8.32;;;3.42;;
32611;SDS011;19030;49.478;8.986;2022-11-23T06:41:32;7.85;;;2.92;;
32611;SDS011;19030;49.478;8.986;2022-11-23T06:43:35;10.07;;;4.00;;
32611;SDS011;19030;49.478;8.986;2022-11-23T06:45:35;8.15;;;2.97;;
32611;SDS011;19030;49.478;8.986;2022-11-23T06:47:40;10.30;;;3.78;;
32611;SDS011;19030;49.478;8.986;2022-11-23T06:49:41;7.35;;;3.20;;
32611;SDS011;19030;49.478;8.986;2022-11-23T06:51:49;10.57;;;3.35;;
32611;SDS011;19030;49.478;8.986;2022-11-23T06:53:49;8.75;;;3.97;;
32611;SDS011;19030;49.478;8.986;2022-11-23T06:55:51;9.23;;;4.20;;
32611;SDS011;19030;49.478;8.986;2022-11-23T06:57:55;9.77;;;3.40;;
32611;SDS011;19030;49.478;8.986;2022-11-23T06:59:57;6.05;;;3.67;;
32611;SDS011;19030;49.478;8.986;2022-11-23T07:02:04;9.68;;;2.88;;
32611;SDS011;19030;49.478;8.986;2022-11-23T07:04:09;6.22;;;3.15;;
32611;SDS011;19030;49.478;8.986;2022-11-23T07:06:17;11.07;;;3.60;;
32611;SDS011;19030;49.478;8.986;2022-11-23T07:08:18;12.45;;;3.78;;
32611;SDS011;19030;49.478;8.986;2022-11-23T07:10:19;7.57;;;3.55;;
32611;SDS011;19030;49.478;8.986;2022-11-23T07:12:24;9.68;;;3.50;;
32611;SDS011;19030;49.478;8.986;2022-11-23T07:14:24;10.23;;;3.38;;
32611;SDS011;19030;49.478;8.986;2022-11-23T07:16:25;10.88;;;4.50;;
32611;SDS011;19030;49.478;8.986;2022-11-23T07:18:26;8.00;;;3.75;;
32611;SDS011;19030;49.478;8.986;2022-11-23T07:20:32;10.23;;;3.83;;
32611;SDS011;19030;49.478;8.986;2022-11-23T07:22:33;10.80;;;3.80;;
32611;SDS011;19030;49.478;8.986;2022-11-23T07:24:35;7.50;;;3.20;;
32611;SDS011;19030;49.478;8.986;2022-11-23T07:26:35;7.68;;;3.85;;
32611;SDS011;19030;49.478;8.986;2022-11-23T07:28:37;8.55;;;3.42;;
32611;SDS011;19030;49.478;8.986;2022-11-23T07:30:39;7.07;;;2.90;;
32611;SDS011;19030;49.478;8.986;2022-11-23T07:32:40;5.78;;;2.72;;
32611;SDS011;19030;49.478;8.986;2022-11-23T07:34:41;8.68;;;3.20;;
32611;SDS011;19030;49.478;8.986;2022-11-23T07:36:42;9.35;;;3.40;;
32611;SDS011;19030;49.478;8.986;2022-11-23T07:38:43;6.90;;;3.00;;
32611;SDS011;19030;49.478;8.986;2022-11-23T07:40:47;8.48;;;3.35;;
32611;SDS011;19030;49.478;8.986;2022-11-23T07:43:03;8.15;;;3.65;;
32611;SDS011;19030;49.478;8.986;2022-11-23T07:45:06;8.50;;;3.95;;
32611;SDS011;19030;49.478;8.986;2022-11-23T07:47:09;9.13;;;3.95;;
32611;SDS011;19030;49.478;8.986;2022-11-23T07:49:10;11.18;;;4.35;;
32611;SDS011;19030;49.478;8.986;2022-11-23T07:51:10;9.13;;;4.28;;
32611;SDS011;19030;49.478;8.986;2022-11-23T07:53:11;9.93;;;4.70;;
32611;SDS011;19030;49.478;8.986;2022-11-23T07:55:11;10.52;;;5.38;;
32611;SDS011;19030;49.478;8.986;2022-11-23T07:57:12;14.70;;;6.07;;
32611;SDS011;19030;49.478;8.986;2022-11-23T07:59:13;13.02;;;5.72;;
32611;SDS011;19030;49.478;8.986;2022-11-23T08:01:14;10.13;;;5.38;;
32611;SDS011;19030;49.478;8.986;2022-11-23T08:03:17;13.43;;;5.70;;
32611;SDS011;19030;49.478;8.986;2022-11-23T08:05:18;12.02;;;4.57;;
32611;SDS011;19030;49.478;8.986;2022-11-23T08:07:18;13.95;;;4.90;;
32611;SDS011;19030;49.478;8.986;2022-11-23T08:09:19;9.88;;;4.05;;
32611;SDS011;19030;49.478;8.986;2022-11-23T08:11:20;8.55;;;4.22;;
32611;SDS011;19030;49.478;8.986;2022-11-23T08:13:21;9.02;;;4.03;;
32611;SDS011;19030;49.478;8.986;2022-11-23T08:15:22;8.57;;;4.05;;
32611;SDS011;19030;49.478;8.986;2022-11-23T08:17:23;10.23;;;4.38;;
32611;SDS011;19030;49.478;8.986;2022-11-23T08:19:23;8.60;;;4.45;;
32611;SDS011;19030;49.478;8.986;2022-11-23T08:21:24;9.95;;;4.55;;
32611;SDS011;19030;49.478;8.986;2022-11-23T08:23:24;12.75;;;4.40;;
32611;SDS011;19030;49.478;8.986;2022-11-23T08:25:26;16.52;;;5.00;;
32611;SDS011;19030;49.478;8.986;2022-11-23T08:27:27;8.75;;;5.30;;
32611;SDS011;19030;49.478;8.986;2022-11-23T08:29:28;14.10;;;8.13;;
32611;SDS011;19030;49.478;8.986;2022-11-23T08:31:29;28.77;;;15.10;;
32611;SDS011;19030;49.478;8.986;2022-11-23T08:33:30;21.65;;;10.98;;
32611;SDS011;19030;49.478;8.986;2022-11-23T08:35:36;12.90;;;6.28;;
32611;SDS011;19030;49.478;8.986;2022-11-23T08:37:38;13.60;;;5.63;;
32611;SDS011;19030;49.478;8.986;2022-11-23T08:39:39;12.90;;;6.00;;
32611;SDS011;19030;49.478;8.986;2022-11-23T08:41:40;10.90;;;5.55;;
32611;SDS011;19030;49.478;8.986;2022-11-23T08:43:41;11.05;;;4.40;;
32611;SDS011;19030;49.478;8.986;2022-11-23T08:45:41;7.65;;;3.28;;
32611;SDS011;19030;49.478;8.986;2022-11-23T08:47:42;7.40;;;3.40;;
32611;SDS011;19030;49.478;8.986;2022-11-23T08:49:42;9.98;;;3.40;;
32611;SDS011;19030;49.478;8.986;2022-11-23T08:51:43;11.35;;;2.97;;
32611;SDS011;19030;49.478;8.986;2022-11-23T08:53:43;7.95;;;3.00;;
32611;SDS011;19030;49.478;8.986;2022-11-23T08:55:44;4.32;;;2.65;;
32611;SDS011;19030;49.478;8.986;2022-11-23T08:57:45;5.25;;;2.70;;
32611;SDS011;19030;49.478;8.986;2022-11-23T08:59:46;7.53;;;3.25;;
32611;SDS011;19030;49.478;8.986;2022-11-23T09:01:46;6.80;;;2.92;;
32611;SDS011;19030;49.478;8.986;2022-11-23T09:03:47;7.97;;;3.80;;
32611;SDS011;19030;49.478;8.986;2022-11-23T09:05:47;8.50;;;3.72;;
32611;SDS011;19030;49.478;8.986;2022-11-23T09:07:50;6.80;;;3.50;;
32611;SDS011;19030;49.478;8.986;2022-11-23T09:09:50;9.60;;;4.50;;
32611;SDS011;19030;49.478;8.986;2022-11-23T09:11:51;6.88;;;3.95;;
32611;SDS011;19030;49.478;8.986;2022-11-23T09:13:52;8.38;;;3.60;;
32611;SDS011;19030;49.478;8.986;2022-11-23T09:15:57;7.95;;;3.58;;
32611;SDS011;19030;49.478;8.986;2022-11-23T09:17:58;6.55;;;2.95;;
32611;SDS011;19030;49.478;8.986;2022-11-23T09:19:59;4.45;;;2.92;;
32611;SDS011;19030;49.478;8.986;2022-11-23T09:21:59;5.07;;;2.85;;
32611;SDS011;19030;49.478;8.986;2022-11-23T09:24:00;7.88;;;3.53;;
32611;SDS011;19030;49.478;8.986;2022-11-23T09:26:01;6.38;;;3.63;;
32611;SDS011;19030;49.478;8.986;2022-11-23T09:28:03;5.97;;;3.78;;
32611;SDS011;19030;49.478;8.986;2022-11-23T09:30:03;6.47;;;3.80;;
32611;SDS011;19030;49.478;8.986;2022-11-23T09:32:04;10.73;;;9.73;;
32611;SDS011;19030;49.478;8.986;2022-11-23T09:34:05;11.95;;;10.95;;
32611;SDS011;19030;49.478;8.986;2022-11-23T09:36:06;7.00;;;4.53;;
32611;SDS011;19030;49.478;8.986;2022-11-23T09:38:07;7.72;;;5.22;;
32611;SDS011;19030;49.478;8.986;2022-11-23T09:40:08;7.38;;;4.25;;
32611;SDS011;19030;49.478;8.986;2022-11-23T09:42:29;6.72;;;4.13;;
32611;SDS011;19030;49.478;8.986;2022-11-23T09:44:54;14.98;;;13.63;;
32611;SDS011;19030;49.478;8.986;2022-11-23T09:49:27;8.02;;;5.57;;
32611;SDS011;19030;49.478;8.986;2022-11-23T09:51:36;9.45;;;6.20;;
32611;SDS011;19030;49.478;8.986;2022-11-23T09:53:49;6.65;;;5.30;;
32611;SDS011;19030;49.478;8.986;2022-11-23T09:56:01;9.15;;;6.72;;
32611;SDS011;19030;49.478;8.986;2022-11-23T09:58:03;12.43;;;7.40;;
32611;SDS011;19030;49.478;8.986;2022-11-23T10:00:06;8.73;;;7.82;;
32611;SDS011;19030;49.478;8.986;2022-11-23T10:02:18;8.77;;;6.47;;
32611;SDS011;19030;49.478;8.986;2022-11-23T10:04:20;8.68;;;5.05;;
32611;SDS011;19030;49.478;8.986;2022-11-23T10:06:23;9.52;;;6.47;;
32611;SDS011;19030;49.478;8.986;2022-11-23T10:10:43;8.30;;;6.50;;
32611;SDS011;19030;49.478;8.986;2022-11-23T10:13:06;10.57;;;5.85;;
32611;SDS011;19030;49.478;8.986;2022-11-23T10:20:03;9.40;;;5.60;;
32611;SDS011;19030;49.478;8.986;2022-11-23T10:22:34;10.15;;;6.50;;
32611;SDS011;19030;49.478;8.986;2022-11-23T10:24:49;8.83;;;6.17;;
32611;SDS011;19030;49.478;8.986;2022-11-23T10:26:52;8.45;;;6.00;;
32611;SDS011;19030;49.478;8.986;2022-11-23T10:28:52;9.40;;;6.40;;
32611;SDS011;19030;49.478;8.986;2022-11-23T10:31:11;10.73;;;6.95;;
32611;SDS011;19030;49.478;8.986;2022-11-23T10:33:19;10.82;;;6.90;;
32611;SDS011;19030;49.478;8.986;2022-11-23T10:35:32;9.95;;;6.57;;
32611;SDS011;19030;49.478;8.986;2022-11-23T10:37:34;11.45;;;7.10;;
32611;SDS011;19030;49.478;8.986;2022-11-23T10:39:37;8.77;;;7.00;;
32611;SDS011;19030;49.478;8.986;2022-11-23T10:41:37;10.10;;;6.68;;
32611;SDS011;19030;49.478;8.986;2022-11-23T10:46:23;9.30;;;7.50;;
32611;SDS011;19030;49.478;8.986;2022-11-23T10:48:32;9.35;;;6.30;;
32611;SDS011;19030;49.478;8.986;2022-11-23T10:50:37;10.98;;;6.55;;
32611;SDS011;19030;49.478;8.986;2022-11-23T10:52:48;10.48;;;6.57;;
32611;SDS011;19030;49.478;8.986;2022-11-23T10:54:55;13.68;;;6.90;;
32611;SDS011;19030;49.478;8.986;2022-11-23T10:56:58;9.90;;;6.40;;
32611;SDS011;19030;49.478;8.986;2022-11-23T10:59:00;8.98;;;6.20;;
32611;SDS011;19030;49.478;8.986;2022-11-23T11:01:02;11.30;;;6.78;;
32611;SDS011;19030;49.478;8.986;2022-11-23T11:03:22;8.80;;;6.50;;
32611;SDS011;19030;49.478;8.986;2022-11-23T11:05:33;11.88;;;6.28;;
32611;SDS011;19030;49.478;8.986;2022-11-23T11:07:36;8.85;;;6.50;;
32611;SDS011;19030;49.478;8.986;2022-11-23T11:09:37;9.25;;;6.50;;
32611;SDS011;19030;49.478;8.986;2022-11-23T11:11:38;8.88;;;6.35;;
32611;SDS011;19030;49.478;8.986;2022-11-23T11:13:45;11.65;;;6.32;;
32611;SDS011;19030;49.478;8.986;2022-11-23T11:15:54;8.65;;;6.68;;
32611;SDS011;19030;49.478;8.986;2022-11-23T11:17:57;9.07;;;6.63;;
32611;SDS011;19030;49.478;8.986;2022-11-23T11:20:22;13.23;;;7.40;;
32611;SDS011;19030;49.478;8.986;2022-11-23T11:22:41;12.80;;;7.22;;
32611;SDS011;19030;49.478;8.986;2022-11-23T11:24:42;15.45;;;6.88;;
32611;SDS011;19030;49.478;8.986;2022-11-23T11:26:57;10.40;;;6.45;;
32611;SDS011;19030;49.478;8.986;2022-11-23T11:29:01;11.57;;;6.50;;
32611;SDS011;19030;49.478;8.986;2022-11-23T11:31:23;8.90;;;6.60;;
32611;SDS011;19030;49.478;8.986;2022-11-23T11:33:28;11.25;;;6.30;;
32611;SDS011;19030;49.478;8.986;2022-11-23T11:35:39;8.82;;;6.20;;
32611;SDS011;19030;49.478;8.986;2022-11-23T11:37:46;12.90;;;6.55;;
32611;SDS011;19030;49.478;8.986;2022-11-23T11:41:52;9.70;;;6.68;;
32611;SDS011;19030;49.478;8.986;2022-11-23T11:43:57;11.10;;;6.85;;
32611;SDS011;19030;49.478;8.986;2022-11-23T11:46:12;9.65;;;5.93;;
32611;SDS011;19030;49.478;8.986;2022-11-23T11:48:19;10.60;;;6.10;;
32611;SDS011;19030;49.478;8.986;2022-11-23T11:50:24;12.40;;;6.15;;
32611;SDS011;19030;49.478;8.986;2022-11-23T11:52:29;11.93;;;6.60;;
32611;SDS011;19030;49.478;8.986;2022-11-23T11:54:39;10.25;;;6.32;;
32611;SDS011;19030;49.478;8.986;2022-11-23T11:56:56;11.38;;;6.03;;
32611;SDS011;19030;49.478;8.986;2022-11-23T11:59:12;10.57;;;6.90;;
32611;SDS011;19030;49.478;8.986;2022-11-23T12:01:35;10.07;;;6.07;;
32611;SDS011;19030;49.478;8.986;2022-11-23T12:03:55;9.80;;;6.03;;
32611;SDS011;19030;49.478;8.986;2022-11-23T12:06:03;9.18;;;5.70;;
32611;SDS011;19030;49.478;8.986;2022-11-23T12:08:28;8.20;;;5.80;;
32611;SDS011;19030;49.478;8.986;2022-11-23T12:11:08;11.02;;;5.80;;
32611;SDS011;19030;49.478;8.986;2022-11-23T12:13:03;10.82;;;5.82;;
32611;SDS011;19030;49.478;8.986;2022-11-23T12:15:04;10.75;;;5.68;;
32611;SDS011;19030;49.478;8.986;2022-11-23T12:21:42;11.45;;;5.93;;
32611;SDS011;19030;49.478;8.986;2022-11-23T12:28:44;11.25;;;5.50;;
32611;SDS011;19030;49.478;8.986;2022-11-23T12:35:58;11.00;;;5.88;;
32611;SDS011;19030;49.478;8.986;2022-11-23T12:47:26;10.43;;;5.50;;
32611;SDS011;19030;49.478;8.986;2022-11-23T12:49:41;14.82;;;6.15;;
32611;SDS011;19030;49.478;8.986;2022-11-23T12:58:44;9.23;;;5.20;;
32611;SDS011;19030;49.478;8.986;2022-11-23T13:00:48;9.32;;;5.43;;
32611;SDS011;19030;49.478;8.986;2022-11-23T13:05:01;12.20;;;6.00;;
32611;SDS011;19030;49.478;8.986;2022-11-23T13:12:51;10.63;;;6.18;;
32611;SDS011;19030;49.478;8.986;2022-11-23T13:15:12;12.35;;;5.82;;
32611;SDS011;19030;49.478;8.986;2022-11-23T13:22:13;11.18;;;6.10;;